sensor_id;sensor_type;location;lat;lon;timestamp;P1;durP1;ratioP1;P2;durP2;ratioP2
20619;SDS011;10469;42.720;23.252;2022-10-19T00:03:29;13.30;;;5.50;;
20619;SDS011;10469;42.720;23.252;2022-10-19T00:05:56;13.50;;;6.20;;
20619;SDS011;10469;42.720;23.252;2022-10-19T00:08:21;11.15;;;5.97;;
20619;SDS011;10469;42.720;23.252;2022-10-19T00:10:47;9.32;;;5.75;;
20619;SDS011;10469;42.720;23.252;2022-10-19T00:13:12;11.20;;;5.72;;
20619;SDS011;10469;42.720;23.252;2022-10-19T00:15:38;11.05;;;6.00;;
20619;SDS011;10469;42.720;23.252;2022-10-19T00:18:04;8.90;;;5.50;;
20619;SDS011;10469;42.720;23.252;2022-10-19T00:20:31;7.57;;;5.35;;
20619;SDS011;10469;42.720;23.252;2022-10-19T00:22:56;10.00;;;5.20;;
20619;SDS011;10469;42.720;23.252;2022-10-19T00:25:21;8.65;;;5.70;;
20619;SDS011;10469;42.720;23.252;2022-10-19T00:27:47;8.27;;;5.32;;
20619;SDS011;10469;42.720;23.252;2022-10-19T00:30:12;10.43;;;5.40;;
20619;SDS011;10469;42.720;23.252;2022-10-19T00:32:38;6.40;;;4.95;;
20619;SDS011;10469;42.720;23.252;2022-10-19T00:35:03;9.77;;;5.28;;
20619;SDS011;10469;42.720;23.252;2022-10-19T00:37:29;6.30;;;5.28;;
20619;SDS011;10469;42.720;23.252;2022-10-19T00:39:54;11.57;;;5.90;;
20619;SDS011;10469;42.720;23.252;2022-10-19T00:42:20;11.07;;;5.85;;
20619;SDS011;10469;42.720;23.252;2022-10-19T00:47:10;10.23;;;5.65;;
20619;SDS011;10469;42.720;23.252;2022-10-19T00:49:37;11.85;;;5.40;;
20619;SDS011;10469;42.720;23.252;2022-10-19T00:52:13;8.40;;;5.55;;
20619;SDS011;10469;42.720;23.252;2022-10-19T00:54:42;10.52;;;5.75;;
20619;SDS011;10469;42.720;23.252;2022-10-19T00:57:10;10.35;;;5.78;;
20619;SDS011;10469;42.720;23.252;2022-10-19T00:59:37;8.38;;;5.55;;
20619;SDS011;10469;42.720;23.252;2022-10-19T01:02:04;10.82;;;5.30;;
20619;SDS011;10469;42.720;23.252;2022-10-19T01:04:31;7.50;;;5.47;;
20619;SDS011;10469;42.720;23.252;2022-10-19T01:07:00;9.43;;;5.13;;
20619;SDS011;10469;42.720;23.252;2022-10-19T01:09:27;7.53;;;5.00;;
20619;SDS011;10469;42.720;23.252;2022-10-19T01:11:57;7.07;;;4.90;;
20619;SDS011;10469;42.720;23.252;2022-10-19T01:17:22;10.77;;;5.50;;
20619;SDS011;10469;42.720;23.252;2022-10-19T01:28:17;8.18;;;5.60;;
20619;SDS011;10469;42.720;23.252;2022-10-19T01:31:07;8.18;;;5.28;;
20619;SDS011;10469;42.720;23.252;2022-10-19T01:39:44;6.40;;;5.07;;
20619;SDS011;10469;42.720;23.252;2022-10-19T01:42:12;8.07;;;5.00;;
20619;SDS011;10469;42.720;23.252;2022-10-19T01:44:52;9.25;;;4.88;;
20619;SDS011;10469;42.720;23.252;2022-10-19T01:47:25;9.95;;;5.35;;
20619;SDS011;10469;42.720;23.252;2022-10-19T01:49:59;8.68;;;5.10;;
20619;SDS011;10469;42.720;23.252;2022-10-19T01:52:34;10.57;;;5.47;;
20619;SDS011;10469;42.720;23.252;2022-10-19T01:55:02;10.30;;;5.03;;
20619;SDS011;10469;42.720;23.252;2022-10-19T01:57:32;8.63;;;5.35;;
20619;SDS011;10469;42.720;23.252;2022-10-19T02:00:00;9.35;;;5.03;;
20619;SDS011;10469;42.720;23.252;2022-10-19T02:02:31;7.18;;;5.22;;
20619;SDS011;10469;42.720;23.252;2022-10-19T02:05:00;10.10;;;5.20;;
20619;SDS011;10469;42.720;23.252;2022-10-19T02:07:29;9.77;;;5.65;;
20619;SDS011;10469;42.720;23.252;2022-10-19T02:09:55;6.88;;;4.75;;
20619;SDS011;10469;42.720;23.252;2022-10-19T02:12:21;8.07;;;4.82;;
20619;SDS011;10469;42.720;23.252;2022-10-19T02:14:50;6.80;;;4.65;;
20619;SDS011;10469;42.720;23.252;2022-10-19T02:17:21;7.97;;;5.32;;
20619;SDS011;10469;42.720;23.252;2022-10-19T02:19:51;11.18;;;4.65;;
20619;SDS011;10469;42.720;23.252;2022-10-19T02:22:18;13.38;;;4.90;;
20619;SDS011;10469;42.720;23.252;2022-10-19T02:24:43;12.70;;;5.45;;
20619;SDS011;10469;42.720;23.252;2022-10-19T02:27:09;9.43;;;4.70;;
20619;SDS011;10469;42.720;23.252;2022-10-19T02:29:35;7.90;;;4.78;;
20619;SDS011;10469;42.720;23.252;2022-10-19T02:32:02;14.57;;;5.40;;
20619;SDS011;10469;42.720;23.252;2022-10-19T02:34:28;7.35;;;4.75;;
20619;SDS011;10469;42.720;23.252;2022-10-19T02:36:54;10.05;;;5.22;;
20619;SDS011;10469;42.720;23.252;2022-10-19T02:39:20;22.88;;;5.55;;
20619;SDS011;10469;42.720;23.252;2022-10-19T02:42:06;10.27;;;5.25;;
20619;SDS011;10469;42.720;23.252;2022-10-19T02:44:40;6.90;;;4.78;;
20619;SDS011;10469;42.720;23.252;2022-10-19T02:47:15;7.68;;;4.97;;
20619;SDS011;10469;42.720;23.252;2022-10-19T02:49:45;12.77;;;5.30;;
20619;SDS011;10469;42.720;23.252;2022-10-19T02:52:12;6.60;;;4.90;;
20619;SDS011;10469;42.720;23.252;2022-10-19T02:54:39;8.15;;;4.95;;
20619;SDS011;10469;42.720;23.252;2022-10-19T02:57:16;8.70;;;5.22;;
20619;SDS011;10469;42.720;23.252;2022-10-19T02:59:44;12.70;;;5.80;;
20619;SDS011;10469;42.720;23.252;2022-10-19T03:02:10;6.38;;;4.80;;
20619;SDS011;10469;42.720;23.252;2022-10-19T03:04:36;6.53;;;5.25;;
20619;SDS011;10469;42.720;23.252;2022-10-19T03:07:01;11.20;;;5.50;;
20619;SDS011;10469;42.720;23.252;2022-10-19T03:09:27;9.20;;;5.53;;
20619;SDS011;10469;42.720;23.252;2022-10-19T03:11:54;10.38;;;5.32;;
20619;SDS011;10469;42.720;23.252;2022-10-19T03:14:20;7.45;;;5.00;;
20619;SDS011;10469;42.720;23.252;2022-10-19T03:16:53;16.65;;;5.78;;
20619;SDS011;10469;42.720;23.252;2022-10-19T03:19:18;11.77;;;5.32;;
20619;SDS011;10469;42.720;23.252;2022-10-19T03:21:44;16.20;;;5.97;;
20619;SDS011;10469;42.720;23.252;2022-10-19T03:24:09;12.32;;;5.82;;
20619;SDS011;10469;42.720;23.252;2022-10-19T03:26:35;10.32;;;6.78;;
20619;SDS011;10469;42.720;23.252;2022-10-19T03:29:00;12.13;;;5.97;;
20619;SDS011;10469;42.720;23.252;2022-10-19T03:31:25;8.75;;;6.10;;
20619;SDS011;10469;42.720;23.252;2022-10-19T03:33:51;15.05;;;6.22;;
20619;SDS011;10469;42.720;23.252;2022-10-19T03:36:24;23.02;;;10.38;;
20619;SDS011;10469;42.720;23.252;2022-10-19T03:38:52;14.10;;;7.05;;
20619;SDS011;10469;42.720;23.252;2022-10-19T03:41:20;23.70;;;8.48;;
20619;SDS011;10469;42.720;23.252;2022-10-19T03:43:47;14.63;;;7.88;;
20619;SDS011;10469;42.720;23.252;2022-10-19T03:46:13;14.20;;;6.82;;
20619;SDS011;10469;42.720;23.252;2022-10-19T03:48:39;10.73;;;7.25;;
20619;SDS011;10469;42.720;23.252;2022-10-19T03:51:06;19.20;;;9.20;;
20619;SDS011;10469;42.720;23.252;2022-10-19T03:53:33;14.43;;;7.38;;
20619;SDS011;10469;42.720;23.252;2022-10-19T03:56:00;11.25;;;6.80;;
20619;SDS011;10469;42.720;23.252;2022-10-19T03:58:27;12.50;;;7.78;;
20619;SDS011;10469;42.720;23.252;2022-10-19T04:00:52;14.65;;;6.88;;
20619;SDS011;10469;42.720;23.252;2022-10-19T04:03:18;13.18;;;6.40;;
20619;SDS011;10469;42.720;23.252;2022-10-19T04:05:43;16.83;;;7.03;;
20619;SDS011;10469;42.720;23.252;2022-10-19T04:08:08;14.25;;;7.22;;
20619;SDS011;10469;42.720;23.252;2022-10-19T04:10:34;13.38;;;7.93;;
20619;SDS011;10469;42.720;23.252;2022-10-19T04:12:59;20.23;;;8.20;;
20619;SDS011;10469;42.720;23.252;2022-10-19T04:15:24;20.10;;;7.72;;
20619;SDS011;10469;42.720;23.252;2022-10-19T04:17:50;21.45;;;7.82;;
20619;SDS011;10469;42.720;23.252;2022-10-19T04:20:15;16.75;;;8.35;;
20619;SDS011;10469;42.720;23.252;2022-10-19T04:22:41;13.07;;;7.97;;
20619;SDS011;10469;42.720;23.252;2022-10-19T04:25:07;19.25;;;7.13;;
20619;SDS011;10469;42.720;23.252;2022-10-19T04:27:34;16.25;;;6.57;;
20619;SDS011;10469;42.720;23.252;2022-10-19T04:29:59;23.58;;;9.00;;
20619;SDS011;10469;42.720;23.252;2022-10-19T04:32:25;15.93;;;8.63;;
20619;SDS011;10469;42.720;23.252;2022-10-19T04:34:50;23.42;;;8.60;;
20619;SDS011;10469;42.720;23.252;2022-10-19T04:37:15;32.20;;;9.13;;
20619;SDS011;10469;42.720;23.252;2022-10-19T04:39:41;29.10;;;10.63;;
20619;SDS011;10469;42.720;23.252;2022-10-19T04:42:07;25.25;;;12.00;;
20619;SDS011;10469;42.720;23.252;2022-10-19T04:44:33;21.77;;;9.98;;
20619;SDS011;10469;42.720;23.252;2022-10-19T04:46:58;31.88;;;9.02;;
20619;SDS011;10469;42.720;23.252;2022-10-19T04:49:23;21.17;;;9.50;;
20619;SDS011;10469;42.720;23.252;2022-10-19T04:51:49;18.17;;;10.02;;
20619;SDS011;10469;42.720;23.252;2022-10-19T04:54:14;18.25;;;9.40;;
20619;SDS011;10469;42.720;23.252;2022-10-19T04:56:40;63.30;;;22.33;;
20619;SDS011;10469;42.720;23.252;2022-10-19T04:59:05;34.22;;;11.73;;
20619;SDS011;10469;42.720;23.252;2022-10-19T05:01:31;24.02;;;10.38;;
20619;SDS011;10469;42.720;23.252;2022-10-19T05:03:57;23.60;;;8.98;;
20619;SDS011;10469;42.720;23.252;2022-10-19T05:06:24;21.52;;;9.65;;
20619;SDS011;10469;42.720;23.252;2022-10-19T05:08:50;23.90;;;9.48;;
20619;SDS011;10469;42.720;23.252;2022-10-19T05:11:16;23.58;;;9.38;;
20619;SDS011;10469;42.720;23.252;2022-10-19T05:13:42;21.95;;;9.50;;
20619;SDS011;10469;42.720;23.252;2022-10-19T05:16:12;25.15;;;9.63;;
20619;SDS011;10469;42.720;23.252;2022-10-19T05:18:39;27.83;;;9.48;;
20619;SDS011;10469;42.720;23.252;2022-10-19T05:21:12;41.85;;;10.68;;
20619;SDS011;10469;42.720;23.252;2022-10-19T05:23:38;21.98;;;10.48;;
20619;SDS011;10469;42.720;23.252;2022-10-19T05:26:05;33.75;;;11.48;;
20619;SDS011;10469;42.720;23.252;2022-10-19T05:28:33;30.33;;;10.18;;
20619;SDS011;10469;42.720;23.252;2022-10-19T05:33:31;35.78;;;11.80;;
20619;SDS011;10469;42.720;23.252;2022-10-19T05:35:57;29.33;;;11.80;;
20619;SDS011;10469;42.720;23.252;2022-10-19T05:38:22;27.67;;;10.95;;
20619;SDS011;10469;42.720;23.252;2022-10-19T05:40:47;32.55;;;11.40;;
20619;SDS011;10469;42.720;23.252;2022-10-19T05:43:13;37.35;;;11.40;;
20619;SDS011;10469;42.720;23.252;2022-10-19T05:45:38;31.40;;;11.63;;
20619;SDS011;10469;42.720;23.252;2022-10-19T05:48:04;26.95;;;10.95;;
20619;SDS011;10469;42.720;23.252;2022-10-19T05:50:29;45.40;;;11.45;;
20619;SDS011;10469;42.720;23.252;2022-10-19T05:52:55;35.33;;;11.10;;
20619;SDS011;10469;42.720;23.252;2022-10-19T05:55:20;29.75;;;11.77;;
20619;SDS011;10469;42.720;23.252;2022-10-19T05:57:46;30.65;;;10.15;;
20619;SDS011;10469;42.720;23.252;2022-10-19T06:00:11;27.85;;;10.02;;
20619;SDS011;10469;42.720;23.252;2022-10-19T06:02:37;36.33;;;10.98;;
20619;SDS011;10469;42.720;23.252;2022-10-19T06:05:02;32.80;;;10.93;;
20619;SDS011;10469;42.720;23.252;2022-10-19T06:07:28;23.58;;;9.98;;
20619;SDS011;10469;42.720;23.252;2022-10-19T06:09:54;26.27;;;9.25;;
20619;SDS011;10469;42.720;23.252;2022-10-19T06:12:19;25.08;;;9.07;;
20619;SDS011;10469;42.720;23.252;2022-10-19T06:14:44;21.88;;;7.93;;
20619;SDS011;10469;42.720;23.252;2022-10-19T06:17:10;21.33;;;7.15;;
20619;SDS011;10469;42.720;23.252;2022-10-19T06:19:36;16.83;;;7.55;;
20619;SDS011;10469;42.720;23.252;2022-10-19T06:22:01;14.15;;;7.50;;
20619;SDS011;10469;42.720;23.252;2022-10-19T06:24:27;12.82;;;7.70;;
20619;SDS011;10469;42.720;23.252;2022-10-19T06:26:52;18.63;;;7.38;;
20619;SDS011;10469;42.720;23.252;2022-10-19T06:29:21;23.42;;;9.80;;
20619;SDS011;10469;42.720;23.252;2022-10-19T06:31:47;26.80;;;11.20;;
20619;SDS011;10469;42.720;23.252;2022-10-19T06:34:12;27.77;;;11.35;;
20619;SDS011;10469;42.720;23.252;2022-10-19T06:36:38;20.00;;;10.63;;
20619;SDS011;10469;42.720;23.252;2022-10-19T06:39:03;30.50;;;11.55;;
20619;SDS011;10469;42.720;23.252;2022-10-19T06:41:29;25.65;;;10.80;;
20619;SDS011;10469;42.720;23.252;2022-10-19T06:43:55;32.58;;;12.77;;
20619;SDS011;10469;42.720;23.252;2022-10-19T06:46:25;20.52;;;11.60;;
20619;SDS011;10469;42.720;23.252;2022-10-19T06:48:58;18.95;;;11.82;;
20619;SDS011;10469;42.720;23.252;2022-10-19T06:51:26;21.38;;;12.43;;
20619;SDS011;10469;42.720;23.252;2022-10-19T06:53:53;20.73;;;13.40;;
20619;SDS011;10469;42.720;23.252;2022-10-19T06:56:18;35.95;;;14.13;;
20619;SDS011;10469;42.720;23.252;2022-10-19T06:58:44;31.38;;;14.30;;
20619;SDS011;10469;42.720;23.252;2022-10-19T07:01:10;24.23;;;13.88;;
20619;SDS011;10469;42.720;23.252;2022-10-19T07:03:37;27.45;;;14.00;;
20619;SDS011;10469;42.720;23.252;2022-10-19T07:06:05;34.75;;;14.98;;
20619;SDS011;10469;42.720;23.252;2022-10-19T07:08:32;33.50;;;15.15;;
20619;SDS011;10469;42.720;23.252;2022-10-19T07:10:59;34.03;;;13.73;;
20619;SDS011;10469;42.720;23.252;2022-10-19T07:13:27;24.58;;;14.55;;
20619;SDS011;10469;42.720;23.252;2022-10-19T07:16:12;35.60;;;14.73;;
20619;SDS011;10469;42.720;23.252;2022-10-19T07:18:39;28.88;;;15.35;;
20619;SDS011;10469;42.720;23.252;2022-10-19T07:21:06;32.42;;;14.27;;
20619;SDS011;10469;42.720;23.252;2022-10-19T07:23:35;28.52;;;13.65;;
20619;SDS011;10469;42.720;23.252;2022-10-19T07:26:21;25.55;;;13.57;;
20619;SDS011;10469;42.720;23.252;2022-10-19T07:28:50;30.17;;;12.88;;
20619;SDS011;10469;42.720;23.252;2022-10-19T07:31:17;29.63;;;13.38;;
20619;SDS011;10469;42.720;23.252;2022-10-19T07:33:45;22.50;;;12.65;;
20619;SDS011;10469;42.720;23.252;2022-10-19T07:36:12;25.33;;;12.48;;
20619;SDS011;10469;42.720;23.252;2022-10-19T07:38:38;23.77;;;12.73;;
20619;SDS011;10469;42.720;23.252;2022-10-19T07:41:08;31.77;;;12.98;;
20619;SDS011;10469;42.720;23.252;2022-10-19T07:43:38;33.05;;;12.40;;
20619;SDS011;10469;42.720;23.252;2022-10-19T07:46:05;27.13;;;11.75;;
20619;SDS011;10469;42.720;23.252;2022-10-19T07:48:32;25.77;;;12.18;;
20619;SDS011;10469;42.720;23.252;2022-10-19T07:51:03;21.75;;;11.15;;
20619;SDS011;10469;42.720;23.252;2022-10-19T07:53:30;38.63;;;12.20;;
20619;SDS011;10469;42.720;23.252;2022-10-19T07:56:01;19.02;;;11.48;;
20619;SDS011;10469;42.720;23.252;2022-10-19T07:58:30;21.70;;;12.38;;
20619;SDS011;10469;42.720;23.252;2022-10-19T08:01:03;20.52;;;11.90;;
20619;SDS011;10469;42.720;23.252;2022-10-19T08:03:32;20.17;;;11.95;;
20619;SDS011;10469;42.720;23.252;2022-10-19T08:05:58;26.45;;;11.80;;
20619;SDS011;10469;42.720;23.252;2022-10-19T08:08:25;28.73;;;12.15;;
20619;SDS011;10469;42.720;23.252;2022-10-19T08:10:50;24.23;;;10.90;;
20619;SDS011;10469;42.720;23.252;2022-10-19T08:13:16;24.60;;;11.20;;
20619;SDS011;10469;42.720;23.252;2022-10-19T08:15:41;19.65;;;10.35;;
20619;SDS011;10469;42.720;23.252;2022-10-19T08:18:07;22.73;;;10.10;;
20619;SDS011;10469;42.720;23.252;2022-10-19T08:20:32;24.20;;;11.20;;
20619;SDS011;10469;42.720;23.252;2022-10-19T08:22:58;25.58;;;10.50;;
20619;SDS011;10469;42.720;23.252;2022-10-19T08:25:23;19.50;;;9.77;;
20619;SDS011;10469;42.720;23.252;2022-10-19T08:27:48;22.83;;;10.18;;
20619;SDS011;10469;42.720;23.252;2022-10-19T08:30:14;27.23;;;9.77;;
20619;SDS011;10469;42.720;23.252;2022-10-19T08:32:39;19.27;;;9.48;;
20619;SDS011;10469;42.720;23.252;2022-10-19T08:35:05;28.20;;;8.95;;
20619;SDS011;10469;42.720;23.252;2022-10-19T08:37:30;20.88;;;8.68;;
20619;SDS011;10469;42.720;23.252;2022-10-19T08:39:56;30.85;;;8.25;;
20619;SDS011;10469;42.720;23.252;2022-10-19T08:42:27;13.90;;;6.78;;
20619;SDS011;10469;42.720;23.252;2022-10-19T08:45:17;18.27;;;6.28;;
20619;SDS011;10469;42.720;23.252;2022-10-19T08:50:20;26.98;;;6.63;;
20619;SDS011;10469;42.720;23.252;2022-10-19T08:52:54;19.38;;;5.88;;
20619;SDS011;10469;42.720;23.252;2022-10-19T08:55:28;15.52;;;5.90;;
20619;SDS011;10469;42.720;23.252;2022-10-19T08:58:06;12.00;;;5.28;;
20619;SDS011;10469;42.720;23.252;2022-10-19T09:06:47;10.85;;;5.10;;
20619;SDS011;10469;42.720;23.252;2022-10-19T09:09:21;8.13;;;4.40;;
20619;SDS011;10469;42.720;23.252;2022-10-19T09:11:48;8.32;;;4.03;;
20619;SDS011;10469;42.720;23.252;2022-10-19T09:17:08;12.85;;;4.22;;
20619;SDS011;10469;42.720;23.252;2022-10-19T09:19:40;8.05;;;3.80;;
20619;SDS011;10469;42.720;23.252;2022-10-19T09:22:07;8.25;;;4.10;;
20619;SDS011;10469;42.720;23.252;2022-10-19T09:24:46;8.90;;;4.13;;
20619;SDS011;10469;42.720;23.252;2022-10-19T09:27:18;15.07;;;4.70;;
20619;SDS011;10469;42.720;23.252;2022-10-19T09:29:47;5.57;;;4.03;;
20619;SDS011;10469;42.720;23.252;2022-10-19T09:32:21;8.13;;;3.80;;
20619;SDS011;10469;42.720;23.252;2022-10-19T09:34:51;9.27;;;4.00;;
20619;SDS011;10469;42.720;23.252;2022-10-19T09:37:20;9.75;;;4.18;;
20619;SDS011;10469;42.720;23.252;2022-10-19T09:39:47;7.55;;;3.72;;
20619;SDS011;10469;42.720;23.252;2022-10-19T09:42:28;9.65;;;3.47;;
20619;SDS011;10469;42.720;23.252;2022-10-19T09:45:00;17.73;;;4.05;;
20619;SDS011;10469;42.720;23.252;2022-10-19T09:47:37;7.00;;;3.72;;
20619;SDS011;10469;42.720;23.252;2022-10-19T09:50:22;14.63;;;4.10;;
20619;SDS011;10469;42.720;23.252;2022-10-19T09:52:55;10.25;;;4.28;;
20619;SDS011;10469;42.720;23.252;2022-10-19T10:00:41;15.60;;;4.50;;
20619;SDS011;10469;42.720;23.252;2022-10-19T10:03:27;16.33;;;4.38;;
20619;SDS011;10469;42.720;23.252;2022-10-19T10:06:36;11.80;;;4.22;;
20619;SDS011;10469;42.720;23.252;2022-10-19T10:08:46;9.75;;;4.47;;
20619;SDS011;10469;42.720;23.252;2022-10-19T10:11:14;9.00;;;4.30;;
20619;SDS011;10469;42.720;23.252;2022-10-19T10:13:48;8.00;;;3.60;;
20619;SDS011;10469;42.720;23.252;2022-10-19T10:16:19;5.72;;;3.67;;
20619;SDS011;10469;42.720;23.252;2022-10-19T10:18:49;18.08;;;5.28;;
20619;SDS011;10469;42.720;23.252;2022-10-19T10:21:25;9.07;;;4.28;;
20619;SDS011;10469;42.720;23.252;2022-10-19T10:26:30;15.25;;;4.18;;
20619;SDS011;10469;42.720;23.252;2022-10-19T10:28:56;17.10;;;4.50;;
20619;SDS011;10469;42.720;23.252;2022-10-19T10:31:25;9.18;;;4.40;;
20619;SDS011;10469;42.720;23.252;2022-10-19T10:34:02;10.38;;;4.05;;
20619;SDS011;10469;42.720;23.252;2022-10-19T10:36:28;8.43;;;4.18;;
20619;SDS011;10469;42.720;23.252;2022-10-19T10:39:03;11.82;;;3.35;;
20619;SDS011;10469;42.720;23.252;2022-10-19T10:41:38;4.93;;;3.35;;
20619;SDS011;10469;42.720;23.252;2022-10-19T10:44:17;14.55;;;3.78;;
20619;SDS011;10469;42.720;23.252;2022-10-19T10:46:56;9.80;;;3.35;;
20619;SDS011;10469;42.720;23.252;2022-10-19T10:49:24;9.52;;;3.60;;
20619;SDS011;10469;42.720;23.252;2022-10-19T10:52:04;9.52;;;3.13;;
20619;SDS011;10469;42.720;23.252;2022-10-19T10:54:30;13.93;;;4.00;;
20619;SDS011;10469;42.720;23.252;2022-10-19T11:02:23;6.60;;;3.25;;
20619;SDS011;10469;42.720;23.252;2022-10-19T11:11:12;8.50;;;3.78;;
20619;SDS011;10469;42.720;23.252;2022-10-19T11:13:44;8.27;;;3.40;;
20619;SDS011;10469;42.720;23.252;2022-10-19T11:16:30;11.60;;;3.35;;
20619;SDS011;10469;42.720;23.252;2022-10-19T11:19:22;7.50;;;3.47;;
20619;SDS011;10469;42.720;23.252;2022-10-19T11:29:46;8.00;;;3.70;;
20619;SDS011;10469;42.720;23.252;2022-10-19T11:37:50;7.55;;;3.05;;
20619;SDS011;10469;42.720;23.252;2022-10-19T11:40:36;14.60;;;3.83;;
20619;SDS011;10469;42.720;23.252;2022-10-19T11:56:47;5.93;;;3.45;;
20619;SDS011;10469;42.720;23.252;2022-10-19T12:02:03;13.35;;;3.47;;
20619;SDS011;10469;42.720;23.252;2022-10-19T12:07:44;10.50;;;4.30;;
20619;SDS011;10469;42.720;23.252;2022-10-19T12:12:46;11.07;;;3.35;;
20619;SDS011;10469;42.720;23.252;2022-10-19T12:17:50;8.63;;;3.72;;
20619;SDS011;10469;42.720;23.252;2022-10-19T12:22:58;9.25;;;3.70;;
20619;SDS011;10469;42.720;23.252;2022-10-19T12:25:30;11.68;;;3.72;;
20619;SDS011;10469;42.720;23.252;2022-10-19T12:27:58;11.32;;;4.10;;
20619;SDS011;10469;42.720;23.252;2022-10-19T12:30:24;8.07;;;3.75;;
20619;SDS011;10469;42.720;23.252;2022-10-19T12:38:08;8.65;;;4.15;;
20619;SDS011;10469;42.720;23.252;2022-10-19T12:41:00;9.57;;;4.07;;
20619;SDS011;10469;42.720;23.252;2022-10-19T12:51:53;9.45;;;4.60;;
20619;SDS011;10469;42.720;23.252;2022-10-19T12:54:21;8.55;;;3.63;;
20619;SDS011;10469;42.720;23.252;2022-10-19T12:56:49;12.13;;;3.60;;
20619;SDS011;10469;42.720;23.252;2022-10-19T12:59:31;10.15;;;4.25;;
20619;SDS011;10469;42.720;23.252;2022-10-19T13:01:58;10.07;;;4.60;;
20619;SDS011;10469;42.720;23.252;2022-10-19T13:04:25;5.68;;;3.85;;
20619;SDS011;10469;42.720;23.252;2022-10-19T13:15:04;7.45;;;4.07;;
20619;SDS011;10469;42.720;23.252;2022-10-19T13:22:42;11.85;;;3.80;;
20619;SDS011;10469;42.720;23.252;2022-10-19T13:27:51;6.40;;;3.80;;
20619;SDS011;10469;42.720;23.252;2022-10-19T13:46:42;8.68;;;4.43;;
20619;SDS011;10469;42.720;23.252;2022-10-19T13:52:28;8.77;;;3.97;;
20619;SDS011;10469;42.720;23.252;2022-10-19T13:55:13;10.98;;;4.40;;
20619;SDS011;10469;42.720;23.252;2022-10-19T14:00:21;5.13;;;3.80;;
20619;SDS011;10469;42.720;23.252;2022-10-19T14:11:33;11.38;;;4.38;;
20619;SDS011;10469;42.720;23.252;2022-10-19T14:16:33;9.63;;;4.45;;
20619;SDS011;10469;42.720;23.252;2022-10-19T14:18:59;23.13;;;4.72;;
20619;SDS011;10469;42.720;23.252;2022-10-19T14:21:31;14.15;;;4.32;;
20619;SDS011;10469;42.720;23.252;2022-10-19T14:23:58;15.70;;;5.03;;
20619;SDS011;10469;42.720;23.252;2022-10-19T14:26:27;13.55;;;4.88;;
20619;SDS011;10469;42.720;23.252;2022-10-19T14:28:55;13.65;;;4.80;;
20619;SDS011;10469;42.720;23.252;2022-10-19T14:31:24;15.35;;;5.10;;
20619;SDS011;10469;42.720;23.252;2022-10-19T14:33:56;13.43;;;4.78;;
20619;SDS011;10469;42.720;23.252;2022-10-19T14:36:26;7.68;;;4.53;;
20619;SDS011;10469;42.720;23.252;2022-10-19T14:39:04;10.68;;;4.68;;
20619;SDS011;10469;42.720;23.252;2022-10-19T14:41:33;10.30;;;4.95;;
20619;SDS011;10469;42.720;23.252;2022-10-19T14:44:00;9.20;;;4.90;;
20619;SDS011;10469;42.720;23.252;2022-10-19T14:46:46;9.38;;;5.20;;
20619;SDS011;10469;42.720;23.252;2022-10-19T14:49:12;7.15;;;4.28;;
20619;SDS011;10469;42.720;23.252;2022-10-19T14:54:14;21.73;;;5.47;;
20619;SDS011;10469;42.720;23.252;2022-10-19T15:01:57;15.15;;;4.75;;
20619;SDS011;10469;42.720;23.252;2022-10-19T15:04:26;7.20;;;4.85;;
20619;SDS011;10469;42.720;23.252;2022-10-19T15:06:55;22.52;;;17.83;;
20619;SDS011;10469;42.720;23.252;2022-10-19T15:09:24;7.70;;;5.75;;
20619;SDS011;10469;42.720;23.252;2022-10-19T15:11:52;16.30;;;6.38;;
20619;SDS011;10469;42.720;23.252;2022-10-19T15:14:21;7.78;;;5.45;;
20619;SDS011;10469;42.720;23.252;2022-10-19T15:16:51;14.18;;;6.13;;
20619;SDS011;10469;42.720;23.252;2022-10-19T15:19:24;24.67;;;5.97;;
20619;SDS011;10469;42.720;23.252;2022-10-19T15:24:57;10.20;;;5.65;;
20619;SDS011;10469;42.720;23.252;2022-10-19T15:30:05;17.13;;;5.35;;
20619;SDS011;10469;42.720;23.252;2022-10-19T15:35:33;10.82;;;6.00;;
20619;SDS011;10469;42.720;23.252;2022-10-19T15:38:02;11.27;;;5.95;;
20619;SDS011;10469;42.720;23.252;2022-10-19T15:40:39;11.70;;;6.38;;
20619;SDS011;10469;42.720;23.252;2022-10-19T15:48:26;13.20;;;6.15;;
20619;SDS011;10469;42.720;23.252;2022-10-19T15:51:09;13.38;;;6.65;;
20619;SDS011;10469;42.720;23.252;2022-10-19T15:53:59;15.55;;;6.70;;
20619;SDS011;10469;42.720;23.252;2022-10-19T15:56:27;16.45;;;7.07;;
20619;SDS011;10469;42.720;23.252;2022-10-19T15:58:55;13.02;;;7.18;;
20619;SDS011;10469;42.720;23.252;2022-10-19T16:01:26;11.27;;;6.60;;
20619;SDS011;10469;42.720;23.252;2022-10-19T16:03:54;13.07;;;6.45;;
20619;SDS011;10469;42.720;23.252;2022-10-19T16:06:20;10.00;;;6.60;;
20619;SDS011;10469;42.720;23.252;2022-10-19T16:08:49;9.57;;;6.60;;
20619;SDS011;10469;42.720;23.252;2022-10-19T16:11:22;14.40;;;7.18;;
20619;SDS011;10469;42.720;23.252;2022-10-19T16:13:48;9.52;;;7.22;;
20619;SDS011;10469;42.720;23.252;2022-10-19T16:16:21;12.30;;;7.35;;
20619;SDS011;10469;42.720;23.252;2022-10-19T16:18:54;15.50;;;7.55;;
20619;SDS011;10469;42.720;23.252;2022-10-19T16:21:22;25.10;;;7.82;;
20619;SDS011;10469;42.720;23.252;2022-10-19T16:23:52;12.82;;;8.10;;
20619;SDS011;10469;42.720;23.252;2022-10-19T16:26:20;18.77;;;10.10;;
20619;SDS011;10469;42.720;23.252;2022-10-19T16:28:50;11.40;;;8.30;;
20619;SDS011;10469;42.720;23.252;2022-10-19T16:31:25;13.43;;;8.98;;
20619;SDS011;10469;42.720;23.252;2022-10-19T16:33:51;18.88;;;8.20;;
20619;SDS011;10469;42.720;23.252;2022-10-19T16:36:16;12.95;;;8.30;;
20619;SDS011;10469;42.720;23.252;2022-10-19T16:38:44;19.88;;;8.15;;
20619;SDS011;10469;42.720;23.252;2022-10-19T16:41:10;14.93;;;7.13;;
20619;SDS011;10469;42.720;23.252;2022-10-19T16:43:37;13.27;;;7.07;;
20619;SDS011;10469;42.720;23.252;2022-10-19T16:46:06;17.85;;;7.40;;
20619;SDS011;10469;42.720;23.252;2022-10-19T16:48:39;15.93;;;7.60;;
20619;SDS011;10469;42.720;23.252;2022-10-19T16:53:55;11.18;;;7.10;;
20619;SDS011;10469;42.720;23.252;2022-10-19T16:56:23;8.90;;;7.25;;
20619;SDS011;10469;42.720;23.252;2022-10-19T16:58:55;15.18;;;8.25;;
20619;SDS011;10469;42.720;23.252;2022-10-19T17:01:25;11.35;;;8.07;;
20619;SDS011;10469;42.720;23.252;2022-10-19T17:03:52;17.33;;;8.10;;
20619;SDS011;10469;42.720;23.252;2022-10-19T17:06:20;14.38;;;8.93;;
20619;SDS011;10469;42.720;23.252;2022-10-19T17:08:54;19.38;;;9.10;;
20619;SDS011;10469;42.720;23.252;2022-10-19T17:11:23;17.88;;;8.70;;
20619;SDS011;10469;42.720;23.252;2022-10-19T17:13:50;17.88;;;8.73;;
20619;SDS011;10469;42.720;23.252;2022-10-19T17:16:17;14.32;;;8.70;;
20619;SDS011;10469;42.720;23.252;2022-10-19T17:18:44;13.45;;;9.48;;
20619;SDS011;10469;42.720;23.252;2022-10-19T17:21:11;14.60;;;8.98;;
20619;SDS011;10469;42.720;23.252;2022-10-19T17:23:45;15.60;;;10.60;;
20619;SDS011;10469;42.720;23.252;2022-10-19T17:26:12;18.17;;;9.32;;
20619;SDS011;10469;42.720;23.252;2022-10-19T17:28:38;15.65;;;9.13;;
20619;SDS011;10469;42.720;23.252;2022-10-19T17:31:05;19.52;;;9.27;;
20619;SDS011;10469;42.720;23.252;2022-10-19T17:33:34;21.95;;;8.43;;
20619;SDS011;10469;42.720;23.252;2022-10-19T17:36:04;16.35;;;8.70;;
20619;SDS011;10469;42.720;23.252;2022-10-19T17:38:37;18.55;;;8.70;;